Aérodrome :
LOGIN :

S'inscrire | Disclaimer

   EN    FR    IT 

 










Légende :    VFR   VFR Marginal   IFR   IFR Intensif   IFR Très Intensif
Visi : 
Plafond : 
>= 8 km
>= 3000ft
5 à 8 km
1000 à 3000 ft
1500m à 5 km
500 à 1000 ft
800 à 1500m
200 à 500 ft
< 800m
< 200 ft
Symboles :   Orages  Brouillard  Fortes neiges  Fortes précipitations  Vent > 20 kt
SIGMETs :   Divers  Orages  Givrage  Turbulence  Onde Orograph.  Cendres Volcan.






- Altitude de l'aérodrome : 82 ft
- Code IATA : ALG


DAAG - Alger Houari Boumedienne

DERNIER METAR :
  • 020930Z 27012KT 230V300 9999 FEW026 19/08 Q1011

METARs EXPIRÉS :
  • 020900Z 28012KT 220V310 9999 FEW026 18/09 Q1011
  • 020830Z 27008KT 220V300 9999 FEW026 17/09 Q1011
  • 020800Z 28008KT 9999 FEW026 16/10 Q1011
  • 020730Z 28005KT 230V290 9999 FEW026 15/12 Q1011
  • 020700Z VRB02KT 9999 FEW026 SCT080 13/12 Q1011

TAF TAF DAAG
Valide du 02 à 06h jusqu'au 03 à 06h UTC


020500Z 0206/0306 VRB02KT 9999 FEW026 SCT080
BECMG 0208/0210 26014KT
PROB30
TEMPO 0209/0212 FEW026TCU
PROB40
TEMPO 0212/0218 4000 -RA FEW026CB
BECMG 0217/0219 20006KT



MET'MAP, la Météo Aéronautique d'un coup d'oeil ! - Copyright ORBIFLY Décembre 2007 - Disclaimer

ORBIFLY MET'MAP TEAM :

Programmation & Développement : Alexandra Zaïnal
Sur une idée originale de : Baudouin d'Aumeries
Assistance à la programmation : Marc-Olivier Méhu
Soutien technique & logistique : Manuel Goepfert

Contact : metmap@orbifly.com




SOURCES & CREDITS :

   NOAA